Kochka — FGA6596 — position and weather

sailwx.info

Track history (hours):
 
Tides and Currents Weather Stations Pressure Air Temp Water Temp Dewpoint Dewpoint Depression Visibility Wind Speed Wind Dir Waves Ship Positions

Kochka

Last reported at 2018-Jun-23 17:21 UTC. Time now 2018-Jun-25 17:35 UTC.
Position N 47°44' W 003°21'.

Length 12 m.

Type: Sailing vessel. MMSI: 227104720.

Date/timePositionNaut miles runAvg speedWind from/ knotsBaromVisibWave heightAir tempDewpointWater temp
2018-Jun-23 17:21N 47°44' W 003°21'0 0.0
2018-Jun-23 16:59N 47°44' W 003°21'2 3.2
2018-Jun-23 16:30N 47°42' W 003°22'2 4.1
2018-Jun-23 16:00N 47°40' W 003°22'3 5.9
2018-Jun-23 15:30N 47°37' W 003°21'3 5.8
2018-Jun-23 15:00N 47°35' W 003°18'2 4.9
2018-Jun-23 14:30N 47°33' W 003°16'2 3.8
2018-Jun-23 14:00N 47°31' W 003°15'3 4.7
2018-Jun-23 13:19N 47°29' W 003°12'  
2018-Jun-18 07:55N 46°32' W 001°57'2 4.6
2018-Jun-18 07:30N 46°31' W 001°55'2 4.8
2018-Jun-18 07:00N 46°30' W 001°52'2 4.4
2018-Jun-18 06:30N 46°29' W 001°49'1 2.8
2018-Jun-18 06:00N 46°30' W 001°48'  
2018-Jun-15 19:02N 46°30' W 001°48'0 0.0
2018-Jun-15 18:59N 46°30' W 001°48'0 0.0
2018-Jun-15 18:29N 46°30' W 001°48'0 0.0
2018-Jun-15 17:59N 46°30' W 001°48'0 0.0
2018-Jun-15 17:29N 46°30' W 001°48'0 0.0
2018-Jun-15 16:59N 46°30' W 001°48'0 0.0
2018-Jun-15 16:29N 46°30' W 001°48'0 0.0
2018-Jun-15 15:59N 46°30' W 001°48'0 0.0
2018-Jun-15 15:29N 46°30' W 001°48'0 0.0
2018-Jun-15 14:59N 46°30' W 001°48'1 2.2
2018-Jun-15 14:30N 46°29' W 001°47'2 4.3
2018-Jun-15 14:00N 46°27' W 001°45'2 4.0
2018-Jun-15 13:30N 46°26' W 001°43'21 4.4
2018-Jun-15 08:52N 46°13' W 001°19'2 5.8
2018-Jun-15 08:30N 46°12' W 001°17'2 4.5
2018-Jun-15 08:00N 46°10' W 001°15'2 3.6
2018-Jun-15 07:30N 46°08' W 001°14'2 4.9
2018-Jun-15 07:00N 46°09' W 001°10'  
Track history (hours):
 
Tides and Currents Weather Stations Pressure Air Temp Water Temp Dewpoint Dewpoint Depression Visibility Wind Speed Wind Dir Waves Ship Positions

Kochka

Last reported at 2018-Jun-23 17:21 UTC. Time now 2018-Jun-25 17:35 UTC.
Position N 47°44' W 003°21'.

Length 12 m.

Type: Sailing vessel. MMSI: 227104720.

Date/timePositionNaut miles runAvg speedWind from/ knotsBaromVisibWave heightAir tempDewpointWater temp
2018-Jun-23 17:21N 47°44' W 003°21'0 0.0
2018-Jun-23 16:59N 47°44' W 003°21'2 3.2
2018-Jun-23 16:30N 47°42' W 003°22'2 4.1
2018-Jun-23 16:00N 47°40' W 003°22'3 5.9
2018-Jun-23 15:30N 47°37' W 003°21'3 5.8
2018-Jun-23 15:00N 47°35' W 003°18'2 4.9
2018-Jun-23 14:30N 47°33' W 003°16'2 3.8
2018-Jun-23 14:00N 47°31' W 003°15'3 4.7
2018-Jun-23 13:19N 47°29' W 003°12'  
2018-Jun-18 07:55N 46°32' W 001°57'2 4.6
2018-Jun-18 07:30N 46°31' W 001°55'2 4.8
2018-Jun-18 07:00N 46°30' W 001°52'2 4.4
2018-Jun-18 06:30N 46°29' W 001°49'1 2.8
2018-Jun-18 06:00N 46°30' W 001°48'  
2018-Jun-15 19:02N 46°30' W 001°48'0 0.0
2018-Jun-15 18:59N 46°30' W 001°48'0 0.0
2018-Jun-15 18:29N 46°30' W 001°48'0 0.0
2018-Jun-15 17:59N 46°30' W 001°48'0 0.0
2018-Jun-15 17:29N 46°30' W 001°48'0 0.0
2018-Jun-15 16:59N 46°30' W 001°48'0 0.0
2018-Jun-15 16:29N 46°30' W 001°48'0 0.0
2018-Jun-15 15:59N 46°30' W 001°48'0 0.0
2018-Jun-15 15:29N 46°30' W 001°48'0 0.0
2018-Jun-15 14:59N 46°30' W 001°48'1 2.2
2018-Jun-15 14:30N 46°29' W 001°47'2 4.3
2018-Jun-15 14:00N 46°27' W 001°45'2 4.0
2018-Jun-15 13:30N 46°26' W 001°43'21 4.4
2018-Jun-15 08:52N 46°13' W 001°19'2 5.8
2018-Jun-15 08:30N 46°12' W 001°17'2 4.5
2018-Jun-15 08:00N 46°10' W 001°15'2 3.6
2018-Jun-15 07:30N 46°08' W 001°14'2 4.9
2018-Jun-15 07:00N 46°09' W 001°10'  

Dump ship's entire track history